Terminal Aerodrome Forecast
Issued by NWS

Home | Current Version | Previous Version | Text Only | Print | Product List | Glossary On
Versions: 1 2 3 4 5 6 7 8 9 10 11 12
000
FTUS45 KABQ 280521
TAFAEG
TAF
KAEG 280521Z 2806/2906 34005KT P6SM BKN080
     FM281300 28006KT P6SM SCT080 SCT120
     FM282100 26008KT P6SM VCTS OVC070CB
     FM290100 28011KT P6SM VCSH OVC060
     FM290300 33006KT P6SM BKN080=

USA.gov is the U.S. government's official web portal to all federal, state and local government web resources and services.